Time;durP1;ratioP1;P1;durP2;ratioP2;P2;SDS_P1;SDS_P2;PMS_P1;PMS_P2;Temp;Humidity;BMP_temperature;BMP_pressure;BME280_temperature;BME280_humidity;BME280_pressure;Samples;Min_cycle;Max_cycle;Signal;HPM_P1;HPM_P2
2022/01/05 00:01:38;;;;;;;1.00;1.00;;;22.70;41.20;;;;;;5127588;27;47995;-17
2022/01/05 00:04:05;;;;;;;1.02;1.02;;;22.70;41.20;;;;;;5126987;27;46750;-17
2022/01/05 00:06:32;;;;;;;0.98;0.98;;;22.60;41.20;;;;;;5127781;27;46730;-18
2022/01/05 00:08:58;;;;;;;1.02;1.00;;;22.60;41.20;;;;;;5127364;27;47039;-17
2022/01/05 00:11:26;;;;;;;0.93;0.90;;;22.60;41.40;;;;;;5127301;27;48208;-17
2022/01/05 00:13:56;;;;;;;0.90;0.90;;;22.70;41.20;;;;;;5127106;27;47125;-17
2022/01/05 00:16:22;;;;;;;1.10;1.00;;;22.60;41.20;;;;;;5127547;27;46898;-18
2022/01/05 00:18:49;;;;;;;1.20;1.10;;;22.60;41.80;;;;;;5127089;27;46948;-17
2022/01/05 00:21:16;;;;;;;0.88;0.88;;;22.70;41.20;;;;;;5127071;27;47869;-17
2022/01/05 00:23:43;;;;;;;1.00;1.00;;;22.70;41.10;;;;;;5126988;27;46903;-17
2022/01/05 00:26:10;;;;;;;0.95;0.95;;;22.70;41.10;;;;;;5126530;27;46890;-18
2022/01/05 00:28:38;;;;;;;1.00;1.00;;;22.70;41.10;;;;;;5127023;27;46899;-17
2022/01/05 00:31:05;;;;;;;1.35;1.25;;;22.70;41.10;;;;;;5126947;27;49248;-17
2022/01/05 00:33:31;;;;;;;1.00;1.00;;;22.70;41.10;;;;;;5126750;27;47499;-17
2022/01/05 00:35:58;;;;;;;0.98;0.93;;;22.80;41.00;;;;;;5126906;27;47264;-17
2022/01/05 00:38:25;;;;;;;0.93;0.93;;;22.80;41.00;;;;;;5127155;27;46875;-17
2022/01/05 00:40:51;;;;;;;0.90;0.90;;;22.70;41.00;;;;;;5126635;27;49263;-17
2022/01/05 00:43:18;;;;;;;1.10;1.05;;;22.70;41.00;;;;;;5126523;27;47019;-19
2022/01/05 00:45:46;;;;;;;0.90;0.90;;;22.70;41.00;;;;;;5126414;27;46793;-17
2022/01/05 00:48:13;;;;;;;1.30;1.20;;;22.80;41.00;;;;;;5126792;27;47138;-17
2022/01/05 00:50:39;;;;;;;1.20;1.10;;;22.80;41.00;;;;;;5126698;27;47892;-17
2022/01/05 00:53:06;;;;;;;0.90;0.90;;;22.80;41.00;;;;;;5126768;27;47462;-17
2022/01/05 00:55:33;;;;;;;1.27;1.00;;;22.70;41.00;;;;;;5126728;27;47014;-17
2022/01/05 00:57:59;;;;;;;1.10;1.00;;;22.70;41.10;;;;;;5126635;27;46926;-17
2022/01/05 01:00:26;;;;;;;1.38;1.27;;;22.70;41.10;;;;;;5126264;27;47048;-17
2022/01/05 01:02:54;;;;;;;1.00;1.00;;;22.70;41.10;;;;;;5126297;27;47138;-17
2022/01/05 01:05:21;;;;;;;1.15;1.05;;;22.70;41.10;;;;;;5126482;27;46986;-17
2022/01/05 01:07:48;;;;;;;0.93;0.93;;;22.60;41.00;;;;;;5126662;27;47151;-17
2022/01/05 01:10:14;;;;;;;0.90;0.90;;;22.60;41.00;;;;;;5126346;27;47050;-17
2022/01/05 01:12:41;;;;;;;1.05;1.00;;;22.60;41.10;;;;;;5126529;27;46927;-17
2022/01/05 01:15:09;;;;;;;0.93;0.93;;;22.60;41.20;;;;;;5126220;27;46885;-17
2022/01/05 01:17:36;;;;;;;0.90;0.90;;;22.60;41.10;;;;;;5126680;27;47161;-17
2022/01/05 01:20:05;;;;;;;0.80;0.80;;;22.60;41.20;;;;;;5126264;27;47809;-17
2022/01/05 01:22:33;;;;;;;0.98;0.98;;;22.60;41.30;;;;;;5126529;27;47036;-17
2022/01/05 01:25:00;;;;;;;1.00;1.00;;;22.50;41.10;;;;;;5126122;27;46819;-18
2022/01/05 01:27:27;;;;;;;0.88;0.88;;;22.60;41.10;;;;;;5126551;27;46883;-18
2022/01/05 01:29:53;;;;;;;1.00;1.00;;;22.60;41.10;;;;;;5126110;27;48801;-17
2022/01/05 01:32:20;;;;;;;0.80;0.80;;;22.60;41.10;;;;;;5126243;27;46971;-17
2022/01/05 01:34:47;;;;;;;1.10;1.00;;;22.60;41.10;;;;;;5125766;27;46864;-17
2022/01/05 01:37:15;;;;;;;1.00;1.00;;;22.60;41.10;;;;;;5127383;27;47256;-17
2022/01/05 01:39:41;;;;;;;0.90;0.90;;;22.60;41.10;;;;;;5129387;27;47915;-17
2022/01/05 01:42:08;;;;;;;0.80;0.80;;;22.60;41.10;;;;;;5129725;27;46984;-17
2022/01/05 01:44:35;;;;;;;0.85;0.85;;;22.60;41.00;;;;;;5129301;27;46901;-17
2022/01/05 01:47:02;;;;;;;0.85;0.85;;;22.60;41.00;;;;;;5129680;27;47102;-17
2022/01/05 01:49:29;;;;;;;0.90;0.90;;;22.60;41.00;;;;;;5129265;27;47880;-17
2022/01/05 01:51:55;;;;;;;0.90;0.90;;;22.60;41.00;;;;;;5129274;27;46796;-17
2022/01/05 01:54:23;;;;;;;0.85;0.82;;;22.60;40.90;;;;;;5129123;27;46942;-17
2022/01/05 01:56:50;;;;;;;1.10;1.00;;;22.70;40.90;;;;;;5129808;27;46910;-17
2022/01/05 01:59:17;;;;;;;1.00;0.90;;;22.70;40.90;;;;;;5128983;27;47943;-17
2022/01/05 02:01:43;;;;;;;1.08;1.00;;;22.60;40.90;;;;;;5129409;27;46956;-17
2022/01/05 02:04:10;;;;;;;0.70;0.70;;;22.60;40.90;;;;;;5128995;27;46889;-17
2022/01/05 02:06:37;;;;;;;0.75;0.75;;;22.60;40.90;;;;;;5129323;27;47062;-19
2022/01/05 02:09:04;;;;;;;0.90;0.90;;;22.60;40.90;;;;;;5128984;27;48896;-17
2022/01/05 02:11:32;;;;;;;0.70;0.70;;;22.60;40.90;;;;;;5129487;27;46880;-18
2022/01/05 02:13:59;;;;;;;0.90;0.90;;;22.60;40.90;;;;;;5129217;27;46827;-17
2022/01/05 02:16:30;;;;;;;0.82;0.82;;;22.60;40.90;;;;;;5129381;27;47293;-17
2022/01/05 02:18:59;;;;;;;0.88;0.88;;;22.60;40.90;;;;;;5129138;27;49042;-17
2022/01/05 02:21:28;;;;;;;0.80;0.80;;;22.60;40.90;;;;;;5128837;27;46875;-18
2022/01/05 02:23:54;;;;;;;0.85;0.85;;;22.60;40.80;;;;;;5128889;27;47033;-17
2022/01/05 02:26:21;;;;;;;0.70;0.70;;;22.60;40.90;;;;;;5129246;27;46816;-17
2022/01/05 02:28:48;;;;;;;0.93;0.90;;;22.60;40.90;;;;;;5128884;27;48211;-17
2022/01/05 02:31:14;;;;;;;0.95;0.88;;;22.60;40.90;;;;;;5128920;27;46889;-17
2022/01/05 02:33:41;;;;;;;0.73;0.73;;;22.60;40.90;;;;;;5128948;27;46933;-18
2022/01/05 02:36:08;;;;;;;0.77;0.77;;;22.60;40.90;;;;;;5129126;27;46880;-18
2022/01/05 02:38:36;;;;;;;0.70;0.70;;;22.60;40.80;;;;;;5128737;27;48778;-18
2022/01/05 02:41:06;;;;;;;0.45;0.45;;;22.60;40.90;;;;;;5128404;27;48338;-17
2022/01/05 02:43:33;;;;;;;0.70;0.70;;;22.60;40.90;;;;;;5128561;27;47185;-17
2022/01/05 02:46:00;;;;;;;0.70;0.70;;;22.60;40.80;;;;;;5128764;27;46827;-18
2022/01/05 02:48:26;;;;;;;0.70;0.60;;;22.60;40.80;;;;;;5128047;27;49048;-17
2022/01/05 02:50:56;;;;;;;0.70;0.70;;;22.60;40.70;;;;;;5127888;27;46946;-17
2022/01/05 02:53:22;;;;;;;0.70;0.70;;;22.60;40.80;;;;;;5128499;27;46795;-17
2022/01/05 02:55:50;;;;;;;0.77;0.77;;;22.50;40.80;;;;;;5128769;27;47117;-17
2022/01/05 02:58:17;;;;;;;0.65;0.65;;;22.50;40.80;;;;;;5128720;27;49098;-17
2022/01/05 03:00:44;;;;;;;0.70;0.70;;;22.50;40.90;;;;;;5128422;27;46820;-17
2022/01/05 03:03:10;;;;;;;0.63;0.63;;;22.50;40.80;;;;;;5128240;27;46864;-18
2022/01/05 03:05:37;;;;;;;0.65;0.60;;;22.50;40.80;;;;;;5128449;27;47233;-17
2022/01/05 03:08:04;;;;;;;0.60;0.60;;;22.50;40.80;;;;;;5128322;27;47070;-17
2022/01/05 03:10:31;;;;;;;0.60;0.60;;;22.50;40.80;;;;;;5128210;27;46930;-17
2022/01/05 03:12:59;;;;;;;0.50;0.50;;;22.50;40.90;;;;;;5128059;27;47011;-18
2022/01/05 03:15:26;;;;;;;0.85;0.70;;;22.50;40.90;;;;;;5128308;27;46821;-17
2022/01/05 03:17:52;;;;;;;0.60;0.60;;;22.50;40.80;;;;;;5128186;27;48064;-17
2022/01/05 03:20:20;;;;;;;0.50;0.50;;;22.50;40.80;;;;;;5128050;27;47055;-19
2022/01/05 03:22:47;;;;;;;0.60;0.60;;;22.50;40.80;;;;;;5127874;27;46892;-17
2022/01/05 03:25:16;;;;;;;0.60;0.60;;;22.50;40.80;;;;;;5128217;27;47110;-17
2022/01/05 03:27:44;;;;;;;0.52;0.52;;;22.50;40.90;;;;;;5128261;27;46828;-17
2022/01/05 03:33:34;;;;;;;0.63;0.57;;;22.50;40.80;;;;;;5128233;27;47047;-17
2022/01/05 03:36:00;;;;;;;0.60;0.60;;;22.50;40.80;;;;;;5128140;27;46867;-17
2022/01/05 03:38:28;;;;;;;0.60;0.60;;;22.50;40.70;;;;;;5127805;27;48033;-17
2022/01/05 03:40:55;;;;;;;0.45;0.45;;;22.60;40.80;;;;;;5127484;27;46834;-17
2022/01/05 03:43:21;;;;;;;0.60;0.60;;;22.60;40.70;;;;;;5127809;27;46750;-17
2022/01/05 03:45:48;;;;;;;0.45;0.45;;;22.60;40.70;;;;;;5127290;27;47328;-17
2022/01/05 03:48:16;;;;;;;0.70;0.70;;;22.60;40.70;;;;;;5127651;27;48100;-17
2022/01/05 03:50:44;;;;;;;0.50;0.50;;;22.60;40.70;;;;;;5127473;27;46807;-17
2022/01/05 03:53:11;;;;;;;0.50;0.50;;;22.70;40.70;;;;;;5128004;27;46982;-18
2022/01/05 03:55:38;;;;;;;0.52;0.52;;;22.60;40.60;;;;;;5127596;27;46710;-17
2022/01/05 03:58:05;;;;;;;0.68;0.68;;;22.60;40.60;;;;;;5127509;27;46804;-18
2022/01/05 04:00:32;;;;;;;0.40;0.40;;;22.60;40.60;;;;;;5126167;27;47004;-17
2022/01/05 04:02:59;;;;;;;0.57;0.57;;;22.60;40.60;;;;;;5127135;27;46953;-17
2022/01/05 04:05:26;;;;;;;0.60;0.60;;;22.60;40.60;;;;;;5127281;27;47287;-17
2022/01/05 04:07:54;;;;;;;0.60;0.60;;;22.60;40.70;;;;;;5127428;27;48854;-17
2022/01/05 04:10:20;;;;;;;0.40;0.40;;;22.60;40.60;;;;;;5126912;27;47090;-17
2022/01/05 04:12:48;;;;;;;0.40;0.40;;;22.60;40.60;;;;;;5127157;27;46859;-17
2022/01/05 04:15:15;;;;;;;0.50;0.50;;;22.60;40.70;;;;;;5127177;27;46974;-17
2022/01/05 04:17:41;;;;;;;0.45;0.43;;;22.50;40.60;;;;;;5127427;27;48067;-17
2022/01/05 04:20:09;;;;;;;0.50;0.50;;;22.50;40.70;;;;;;5126946;27;46809;-18
2022/01/05 04:22:36;;;;;;;0.52;0.50;;;22.50;40.70;;;;;;5127413;27;47001;-18
2022/01/05 04:25:04;;;;;;;1.10;0.50;;;22.50;40.70;;;;;;5126869;27;47292;-17
2022/01/05 04:27:31;;;;;;;0.60;0.60;;;22.50;40.60;;;;;;5127013;27;48535;-18
2022/01/05 04:29:58;;;;;;;0.50;0.50;;;22.50;40.70;;;;;;5126835;27;46804;-17
2022/01/05 04:32:24;;;;;;;0.40;0.40;;;22.40;40.70;;;;;;5127101;27;46904;-17
2022/01/05 04:34:51;;;;;;;0.40;0.40;;;22.50;40.80;;;;;;5126837;27;46840;-17
2022/01/05 04:37:19;;;;;;;0.40;0.40;;;22.40;40.80;;;;;;5126674;27;48038;-17
2022/01/05 04:39:45;;;;;;;0.50;0.50;;;22.40;40.80;;;;;;5126520;27;46837;-17
2022/01/05 04:42:14;;;;;;;0.50;0.50;;;22.40;40.90;;;;;;5126973;27;46983;-17
2022/01/05 04:44:40;;;;;;;0.38;0.38;;;22.40;40.80;;;;;;5126221;27;47118;-17
2022/01/05 04:47:08;;;;;;;0.75;0.50;;;22.50;40.80;;;;;;5126502;27;47950;-17
2022/01/05 04:49:35;;;;;;;0.50;0.50;;;22.50;40.70;;;;;;5126535;27;47102;-17
2022/01/05 04:52:01;;;;;;;0.40;0.40;;;22.50;40.60;;;;;;5126888;27;46858;-17
2022/01/05 04:54:28;;;;;;;0.40;0.40;;;22.50;40.60;;;;;;5126667;27;47062;-17
2022/01/05 04:56:55;;;;;;;0.60;0.60;;;22.50;40.60;;;;;;5126719;27;47879;-16
2022/01/05 04:59:23;;;;;;;0.40;0.40;;;22.50;40.50;;;;;;5126118;27;46919;-16
2022/01/05 05:01:49;;;;;;;0.40;0.40;;;22.60;40.50;;;;;;5126862;27;46856;-17
2022/01/05 05:04:16;;;;;;;0.50;0.50;;;22.60;40.50;;;;;;5126562;27;47164;-16
2022/01/05 05:06:43;;;;;;;0.40;0.40;;;22.60;40.50;;;;;;5126539;27;48137;-17
2022/01/05 05:09:09;;;;;;;0.40;0.40;;;22.60;40.40;;;;;;5126311;27;47000;-17
2022/01/05 05:11:36;;;;;;;0.40;0.40;;;22.60;40.40;;;;;;5126567;27;47005;-18
2022/01/05 05:14:03;;;;;;;0.30;0.30;;;22.60;40.40;;;;;;5130163;27;46909;-16
2022/01/05 05:16:31;;;;;;;0.30;0.30;;;22.60;40.30;;;;;;5129921;27;47065;-17
2022/01/05 05:18:57;;;;;;;0.40;0.40;;;22.60;40.30;;;;;;5129964;27;47434;-17
2022/01/05 05:21:24;;;;;;;0.43;0.43;;;22.60;40.30;;;;;;5130166;27;46975;-18
2022/01/05 05:23:51;;;;;;;0.50;0.50;;;22.60;40.30;;;;;;5130160;27;46936;-18
2022/01/05 05:26:17;;;;;;;0.40;0.40;;;22.60;40.30;;;;;;5129963;27;48876;-18
2022/01/05 05:28:44;;;;;;;0.30;0.30;;;22.60;40.30;;;;;;5129928;27;46907;-17
2022/01/05 05:31:11;;;;;;;1.08;0.50;;;22.50;40.30;;;;;;5129764;27;46867;-17
2022/01/05 05:33:39;;;;;;;1.05;0.40;;;22.50;40.40;;;;;;5129868;27;47254;-17
2022/01/05 05:36:06;;;;;;;0.50;0.50;;;22.50;40.40;;;;;;5129791;27;46983;-17
2022/01/05 05:38:33;;;;;;;0.30;0.30;;;22.50;40.40;;;;;;5129682;27;46834;-17
2022/01/05 05:41:00;;;;;;;0.45;0.45;;;22.50;40.50;;;;;;5129844;27;46713;-17
2022/01/05 05:43:26;;;;;;;0.35;0.35;;;22.40;40.40;;;;;;5129597;27;47192;-17
2022/01/05 05:45:53;;;;;;;0.40;0.40;;;22.50;40.40;;;;;;5129139;27;47821;-17
2022/01/05 05:48:20;;;;;;;0.30;0.30;;;22.50;40.30;;;;;;5129373;27;46931;-18
2022/01/05 05:50:48;;;;;;;0.30;0.30;;;22.50;40.30;;;;;;5129548;27;46910;-17
2022/01/05 05:53:15;;;;;;;0.40;0.40;;;22.50;40.30;;;;;;5129588;27;47141;-19
2022/01/05 05:55:42;;;;;;;0.50;0.50;;;22.50;40.30;;;;;;5127480;27;47844;-17
2022/01/05 05:58:08;;;;;;;0.30;0.30;;;22.50;40.30;;;;;;5128783;27;47183;-17
2022/01/05 06:00:35;;;;;;;0.28;0.28;;;22.50;40.20;;;;;;5129331;27;47053;-17
2022/01/05 06:03:02;;;;;;;0.50;0.50;;;22.50;40.20;;;;;;5129704;27;46887;-18
2022/01/05 06:05:29;;;;;;;0.35;0.35;;;22.50;40.10;;;;;;5129224;27;48225;-17
2022/01/05 06:07:57;;;;;;;0.30;0.30;;;22.50;40.10;;;;;;5129130;27;46876;-18
2022/01/05 06:10:23;;;;;;;0.30;0.30;;;22.50;40.00;;;;;;5129065;27;46850;-17
2022/01/05 06:12:50;;;;;;;0.30;0.30;;;22.50;40.00;;;;;;5129592;27;47050;-19
2022/01/05 06:15:17;;;;;;;0.35;0.30;;;22.50;39.90;;;;;;5128749;27;46921;-17
2022/01/05 06:17:43;;;;;;;0.30;0.30;;;22.60;39.90;;;;;;5129210;27;46962;-17
2022/01/05 06:20:12;;;;;;;0.25;0.25;;;22.50;39.80;;;;;;5128816;27;46836;-17
2022/01/05 06:22:40;;;;;;;0.70;0.40;;;22.50;40.00;;;;;;5129450;27;47276;-17
2022/01/05 06:25:09;;;;;;;0.40;0.40;;;22.50;39.80;;;;;;5127770;27;48105;-17
2022/01/05 06:27:36;;;;;;;0.40;0.40;;;22.50;39.80;;;;;;5128814;27;46888;-18
2022/01/05 06:30:06;;;;;;;0.45;0.45;;;22.50;39.70;;;;;;5128575;27;46878;-17
2022/01/05 06:32:33;;;;;;;0.20;0.20;;;22.50;39.80;;;;;;5129180;27;46863;-17
2022/01/05 06:35:00;;;;;;;0.30;0.30;;;22.50;39.70;;;;;;5127736;27;48201;-18
2022/01/05 06:37:27;;;;;;;0.30;0.30;;;22.50;39.70;;;;;;5128533;27;47005;-18
2022/01/05 06:39:54;;;;;;;0.30;0.20;;;22.50;39.60;;;;;;5129030;27;47064;-17
2022/01/05 06:42:22;;;;;;;0.40;0.40;;;22.50;39.70;;;;;;5129064;27;46907;-17
2022/01/05 06:44:48;;;;;;;0.30;0.30;;;22.50;39.70;;;;;;5128221;27;47948;-17
2022/01/05 06:47:15;;;;;;;0.20;0.20;;;22.40;39.70;;;;;;5128868;27;46950;-18
2022/01/05 06:49:42;;;;;;;0.52;0.43;;;22.40;39.70;;;;;;5128553;27;46788;-17
2022/01/05 06:52:11;;;;;;;0.43;0.30;;;22.50;39.70;;;;;;5128688;27;46923;-18
2022/01/05 06:54:38;;;;;;;0.30;0.30;;;22.40;39.70;;;;;;5128330;27;47953;-17
2022/01/05 06:57:05;;;;;;;0.30;0.30;;;22.40;39.60;;;;;;5127380;27;46869;-17
2022/01/05 06:59:33;;;;;;;0.30;0.30;;;22.40;39.60;;;;;;5128159;27;46803;-17
2022/01/05 07:02:00;;;;;;;0.30;0.30;;;22.50;39.60;;;;;;5128889;27;46868;-17
2022/01/05 07:04:27;;;;;;;0.20;0.20;;;22.50;39.50;;;;;;5127707;27;47025;-17
2022/01/05 07:06:54;;;;;;;0.30;0.30;;;22.50;39.50;;;;;;5128094;27;46934;-17
2022/01/05 07:09:20;;;;;;;0.40;0.40;;;22.50;39.50;;;;;;5127932;27;46874;-17
2022/01/05 07:11:47;;;;;;;0.30;0.30;;;22.40;39.40;;;;;;5128571;27;47201;-17
2022/01/05 07:14:14;;;;;;;0.30;0.30;;;22.50;39.50;;;;;;5128197;27;47869;-17
2022/01/05 07:16:42;;;;;;;0.32;0.30;;;22.50;39.40;;;;;;5128037;27;46927;-17
2022/01/05 07:19:08;;;;;;;0.30;0.30;;;22.50;39.40;;;;;;5127452;27;46889;-17
2022/01/05 07:21:35;;;;;;;0.85;0.20;;;22.50;39.40;;;;;;5128177;27;47276;-17
2022/01/05 07:24:03;;;;;;;0.30;0.30;;;22.40;39.30;;;;;;5127433;27;48765;-18
2022/01/05 07:26:31;;;;;;;0.15;0.15;;;22.40;39.20;;;;;;5127900;27;46310;-17
2022/01/05 07:28:58;;;;;;;0.28;0.25;;;22.50;39.30;;;;;;5127817;27;46999;-17
2022/01/05 07:31:25;;;;;;;1.02;0.20;;;22.40;39.20;;;;;;5128204;27;46856;-17
2022/01/05 07:33:53;;;;;;;0.30;0.30;;;22.50;39.20;;;;;;5127626;27;46937;-17
2022/01/05 07:36:19;;;;;;;0.20;0.20;;;22.40;39.10;;;;;;5127858;27;47600;-17
2022/01/05 07:38:46;;;;;;;0.40;0.40;;;22.50;39.10;;;;;;5127886;27;47017;-17
2022/01/05 07:41:14;;;;;;;0.30;0.30;;;22.40;39.00;;;;;;5127869;27;46923;-19
2022/01/05 07:43:40;;;;;;;0.20;0.20;;;22.40;38.70;;;;;;5127327;27;47916;-17
2022/01/05 07:46:07;;;;;;;0.32;0.30;;;22.40;38.90;;;;;;5127760;27;47047;-17
2022/01/05 07:48:34;;;;;;;0.30;0.30;;;22.40;38.90;;;;;;5127805;27;46824;-17
2022/01/05 07:51:02;;;;;;;1.05;0.30;;;22.50;38.80;;;;;;5127830;27;47529;-17
2022/01/05 07:53:28;;;;;;;0.30;0.30;;;22.50;38.80;;;;;;5127213;27;47901;-17
2022/01/05 07:55:55;;;;;;;0.20;0.20;;;22.50;38.90;;;;;;5127257;27;47036;-17
2022/01/05 07:58:23;;;;;;;0.38;0.20;;;22.40;38.80;;;;;;5127258;27;46809;-17
2022/01/05 08:00:50;;;;;;;0.20;0.20;;;22.50;38.70;;;;;;5127331;27;47321;-17
2022/01/05 08:03:17;;;;;;;0.40;0.40;;;22.50;38.70;;;;;;5127304;27;46949;-17
2022/01/05 08:05:43;;;;;;;0.45;0.30;;;22.50;38.60;;;;;;5126772;27;47022;-17
2022/01/05 08:08:12;;;;;;;0.25;0.25;;;22.50;38.60;;;;;;5126523;27;46945;-17
2022/01/05 08:10:39;;;;;;;0.55;0.30;;;22.50;38.60;;;;;;5121591;27;47114;-18
2022/01/05 08:13:06;;;;;;;0.30;0.30;;;22.50;38.60;;;;;;5126676;27;49076;-18
2022/01/05 08:15:33;;;;;;;0.30;0.30;;;22.50;39.20;;;;;;5126062;27;47098;-18
2022/01/05 08:18:01;;;;;;;0.32;0.32;;;22.50;38.50;;;;;;5126497;27;46802;-18
2022/01/05 08:20:28;;;;;;;0.32;0.32;;;22.40;38.30;;;;;;5126531;27;47244;-18
2022/01/05 08:22:55;;;;;;;0.63;0.30;;;22.40;38.60;;;;;;5126561;27;48207;-17
2022/01/05 08:25:23;;;;;;;0.40;0.40;;;22.40;38.40;;;;;;5126138;27;46931;-18
2022/01/05 08:27:51;;;;;;;0.30;0.30;;;22.40;38.60;;;;;;5126343;27;46879;-18
2022/01/05 08:30:18;;;;;;;0.30;0.30;;;22.40;39.10;;;;;;5126363;27;47363;-17
2022/01/05 08:32:46;;;;;;;0.30;0.30;;;22.40;38.50;;;;;;5126618;27;47050;-18
2022/01/05 08:35:13;;;;;;;0.85;0.40;;;22.40;38.60;;;;;;5126588;27;47001;-18
2022/01/05 08:37:43;;;;;;;0.30;0.30;;;22.40;38.50;;;;;;5126719;27;46993;-17
2022/01/05 08:40:11;;;;;;;1.65;0.50;;;22.40;38.50;;;;;;5125576;27;46866;-17
2022/01/05 08:42:39;;;;;;;0.57;0.50;;;22.40;38.30;;;;;;5126604;27;47845;-17
2022/01/05 08:45:06;;;;;;;0.52;0.50;;;22.40;38.30;;;;;;5125907;27;46947;-17
2022/01/05 08:47:33;;;;;;;0.45;0.45;;;22.40;38.90;;;;;;5125968;27;46904;-17
2022/01/05 08:50:00;;;;;;;0.50;0.50;;;22.40;38.30;;;;;;5126553;27;47264;-17
2022/01/05 08:52:27;;;;;;;0.47;0.40;;;22.40;38.30;;;;;;5126579;27;47744;-17
2022/01/05 08:54:53;;;;;;;0.40;0.40;;;22.40;38.30;;;;;;5126298;27;47054;-17
2022/01/05 08:57:21;;;;;;;0.55;0.50;;;22.40;38.20;;;;;;5126421;27;46841;-17
2022/01/05 08:59:51;;;;;;;0.57;0.57;;;22.40;38.20;;;;;;5126253;27;46858;-17
2022/01/05 09:02:18;;;;;;;0.50;0.50;;;22.40;38.10;;;;;;5126366;27;47072;-16
2022/01/05 09:04:45;;;;;;;0.95;0.70;;;22.40;38.10;;;;;;5126365;27;47321;-17
2022/01/05 09:07:11;;;;;;;0.52;0.52;;;22.40;38.20;;;;;;5126607;27;46842;-17
2022/01/05 09:09:38;;;;;;;0.57;0.50;;;22.40;38.70;;;;;;5126293;27;47172;-17
2022/01/05 09:12:06;;;;;;;0.70;0.60;;;22.40;38.00;;;;;;5126286;27;49194;-17
2022/01/05 09:14:32;;;;;;;0.45;0.45;;;22.40;38.00;;;;;;5126288;27;47434;-16
2022/01/05 09:17:00;;;;;;;1.08;0.70;;;22.40;37.90;;;;;;5126259;27;46879;-17
2022/01/05 09:19:28;;;;;;;1.05;0.65;;;22.50;37.90;;;;;;5126152;27;46898;-17
2022/01/05 09:21:55;;;;;;;0.98;0.45;;;22.40;37.70;;;;;;5126393;27;48098;-18
2022/01/05 09:24:21;;;;;;;0.75;0.68;;;22.40;37.70;;;;;;5125712;27;46824;-17
2022/01/05 09:26:48;;;;;;;0.82;0.50;;;22.50;37.70;;;;;;5126288;27;46874;-17
2022/01/05 09:29:15;;;;;;;0.65;0.65;;;22.50;37.70;;;;;;5126208;27;46910;-17
2022/01/05 09:31:42;;;;;;;0.93;0.70;;;22.50;37.70;;;;;;5126343;27;49120;-18
2022/01/05 09:34:10;;;;;;;0.60;0.60;;;22.40;37.50;;;;;;5125735;27;46884;-17
2022/01/05 09:36:41;;;;;;;1.42;0.70;;;22.40;37.60;;;;;;5125322;27;46925;-16
2022/01/05 09:42:01;;;;;;;0.60;0.60;;;22.40;37.40;;;;;;5110728;27;47032;-17
2022/01/05 09:44:29;;;;;;;1.58;0.80;;;22.40;37.40;;;;;;5125416;27;46907;-17
2022/01/05 09:47:29;;;;;;;1.67;0.82;;;22.50;37.50;;;;;;5126139;27;47060;-17
2022/01/05 09:49:59;;;;;;;0.43;0.43;;;22.50;37.40;;;;;;5126049;27;46948;-16
2022/01/05 09:52:26;;;;;;;1.40;0.70;;;22.50;37.30;;;;;;5126000;27;46928;-17
2022/01/05 09:54:53;;;;;;;1.02;0.70;;;22.50;37.30;;;;;;5125567;27;47272;-17
2022/01/05 09:57:21;;;;;;;0.50;0.50;;;22.50;37.30;;;;;;5125655;27;46834;-16
2022/01/05 09:59:48;;;;;;;2.58;0.70;;;22.50;37.30;;;;;;5127675;27;46876;-16
2022/01/05 10:02:16;;;;;;;1.15;0.70;;;22.40;37.10;;;;;;5128816;27;49020;-16
2022/01/05 10:04:43;;;;;;;1.02;0.63;;;22.50;37.20;;;;;;5128962;27;47000;-18
2022/01/05 10:07:11;;;;;;;0.70;0.70;;;22.40;37.20;;;;;;5129373;27;46853;-17
2022/01/05 10:09:37;;;;;;;0.93;0.70;;;22.40;37.10;;;;;;5129359;27;46975;-17
2022/01/05 10:12:06;;;;;;;1.08;0.70;;;22.50;37.20;;;;;;5128981;27;46813;-17
2022/01/05 10:14:33;;;;;;;1.35;0.70;;;22.50;37.00;;;;;;5128868;27;46992;-17
2022/01/05 10:17:05;;;;;;;1.98;0.88;;;22.50;37.10;;;;;;5128733;27;47006;-17
2022/01/05 10:19:31;;;;;;;0.55;0.55;;;22.40;37.00;;;;;;5129410;27;46899;-17
2022/01/05 10:21:58;;;;;;;2.10;0.80;;;22.50;36.90;;;;;;5128954;27;48053;-18
2022/01/05 10:27:19;;;;;;;1.33;0.80;;;22.50;36.80;;;;;;5186130;27;46722;-15
2022/01/05 10:29:53;;;;;;;1.20;0.80;;;22.50;36.70;;;;;;5164989;27;46893;-16
2022/01/05 10:32:20;;;;;;;2.28;0.75;;;22.60;36.70;;;;;;5165122;27;46944;-16
2022/01/05 10:34:59;;;;;;;1.77;0.63;;;22.60;36.70;;;;;;5164516;27;49097;-16
2022/01/05 10:37:26;;;;;;;0.70;0.65;;;22.60;36.50;;;;;;5164953;27;47505;-16
2022/01/05 10:40:07;;;;;;;0.70;0.70;;;22.60;36.40;;;;;;5165033;27;47005;-16
2022/01/05 10:42:36;;;;;;;1.17;0.75;;;22.60;36.40;;;;;;5165008;27;47143;-16
2022/01/05 10:45:05;;;;;;;1.65;0.85;;;22.60;36.50;;;;;;5164640;27;48158;-16
2022/01/05 10:47:32;;;;;;;1.63;0.70;;;22.60;36.40;;;;;;5164696;27;47308;-16
2022/01/05 10:49:59;;;;;;;1.20;0.70;;;22.60;36.50;;;;;;5164696;27;46867;-16
2022/01/05 10:52:26;;;;;;;1.13;0.82;;;22.60;36.50;;;;;;5164870;27;46844;-16
2022/01/05 10:54:54;;;;;;;1.90;0.65;;;22.50;36.50;;;;;;5164514;27;47117;-16
2022/01/05 10:57:21;;;;;;;1.55;0.77;;;22.50;36.40;;;;;;5164655;27;47440;-15
2022/01/05 10:59:50;;;;;;;1.17;0.85;;;22.60;36.40;;;;;;5164502;27;46904;-17
2022/01/05 11:02:24;;;;;;;3.08;0.70;;;22.60;36.50;;;;;;5164425;27;47134;-16
2022/01/05 11:04:50;;;;;;;0.73;0.68;;;22.60;36.40;;;;;;5164119;27;47795;-16
2022/01/05 11:07:20;;;;;;;2.13;0.80;;;22.60;36.40;;;;;;5164441;27;47216;-16
2022/01/05 11:09:52;;;;;;;1.05;0.57;;;22.50;36.40;;;;;;5164247;27;47097;-17
2022/01/05 11:12:19;;;;;;;1.50;0.60;;;22.50;36.40;;;;;;5164864;27;46917;-15
2022/01/05 11:14:46;;;;;;;1.25;0.80;;;22.50;36.30;;;;;;5163915;27;48210;-16
2022/01/05 11:17:16;;;;;;;2.10;0.90;;;22.50;36.30;;;;;;5164298;27;47055;-17
2022/01/05 11:19:43;;;;;;;0.63;0.57;;;22.50;36.30;;;;;;5164310;27;46806;-16
2022/01/05 11:22:12;;;;;;;1.42;0.70;;;22.50;36.40;;;;;;5164394;27;46899;-16
2022/01/05 11:24:39;;;;;;;0.70;0.70;;;22.50;36.20;;;;;;5163620;27;49073;-15
2022/01/05 11:27:07;;;;;;;1.00;0.80;;;22.50;36.10;;;;;;5163451;27;46867;-15
2022/01/05 11:29:34;;;;;;;1.20;0.70;;;22.50;36.00;;;;;;5164082;27;46732;-17
2022/01/05 11:32:01;;;;;;;0.77;0.60;;;22.40;36.10;;;;;;5164002;27;47314;-15
2022/01/05 11:34:30;;;;;;;0.88;0.55;;;22.40;36.10;;;;;;5163471;27;47946;-16
2022/01/05 11:36:57;;;;;;;0.85;0.50;;;22.50;36.20;;;;;;5159916;27;47485;-15
2022/01/05 11:39:24;;;;;;;0.95;0.70;;;22.40;36.10;;;;;;5150135;27;46803;-15
2022/01/05 11:41:51;;;;;;;0.75;0.70;;;22.50;36.20;;;;;;5149504;27;47056;-15
2022/01/05 11:44:18;;;;;;;1.40;0.80;;;22.40;36.50;;;;;;5149574;27;47849;-15
2022/01/05 11:46:46;;;;;;;2.65;0.85;;;22.40;36.00;;;;;;5149158;27;47507;-16
2022/01/05 11:49:14;;;;;;;0.80;0.60;;;22.50;36.00;;;;;;5149594;27;46956;-16
2022/01/05 11:51:49;;;;;;;1.30;0.85;;;22.50;36.10;;;;;;5148391;27;47331;-16
2022/01/05 11:54:18;;;;;;;1.17;0.77;;;22.50;36.00;;;;;;5149317;27;48228;-17
2022/01/05 11:56:45;;;;;;;1.15;0.70;;;22.50;35.90;;;;;;5148866;27;46919;-16
2022/01/05 11:59:22;;;;;;;1.92;0.65;;;22.50;36.00;;;;;;5149331;27;46815;-16
2022/01/05 12:02:00;;;;;;;1.05;0.80;;;22.50;35.90;;;;;;5149612;27;47075;-17
2022/01/05 12:04:26;;;;;;;1.10;0.85;;;22.50;35.90;;;;;;5149409;27;47601;-17
2022/01/05 12:07:07;;;;;;;0.80;0.80;;;22.50;36.10;;;;;;5148400;27;46943;-18
2022/01/05 12:09:37;;;;;;;1.38;0.70;;;22.60;36.10;;;;;;5149018;27;46836;-17
2022/01/05 12:12:37;;;;;;;1.25;0.80;;;22.60;36.00;;;;;;5148971;27;47243;-17
2022/01/05 12:15:04;;;;;;;1.10;0.90;;;22.50;35.90;;;;;;5148722;27;47908;-16
2022/01/05 12:17:32;;;;;;;1.65;0.77;;;22.50;36.00;;;;;;5148956;27;47071;-18
2022/01/05 12:20:17;;;;;;;0.93;0.75;;;22.50;35.90;;;;;;5149228;27;46934;-17
2022/01/05 12:22:46;;;;;;;1.20;0.98;;;22.50;35.90;;;;;;5149474;27;46833;-17
2022/01/05 12:25:20;;;;;;;1.52;1.00;;;22.50;35.80;;;;;;5148405;27;47086;-17
2022/01/05 12:28:07;;;;;;;1.70;0.77;;;22.50;35.80;;;;;;5148683;27;47574;-18
2022/01/05 12:30:41;;;;;;;1.15;0.80;;;22.50;35.70;;;;;;5142021;27;46837;-17
2022/01/05 12:33:09;;;;;;;2.20;0.70;;;22.50;35.70;;;;;;5149475;27;47025;-17
2022/01/05 12:35:47;;;;;;;1.83;0.80;;;22.50;35.60;;;;;;5148679;27;48110;-17
2022/01/05 12:38:34;;;;;;;1.13;0.80;;;22.50;35.60;;;;;;5149207;27;47022;-17
2022/01/05 12:41:22;;;;;;;1.52;0.80;;;22.50;35.60;;;;;;5148642;27;46875;-17
2022/01/05 12:43:49;;;;;;;2.58;0.85;;;22.50;35.70;;;;;;5149277;27;47131;-17
2022/01/05 12:46:32;;;;;;;2.05;1.00;;;22.40;35.70;;;;;;5148466;27;48148;-17
2022/01/05 12:49:00;;;;;;;1.58;1.00;;;22.40;35.70;;;;;;5147744;27;46998;-17
2022/01/05 12:51:52;;;;;;;1.08;0.90;;;22.50;35.90;;;;;;5148690;27;46921;-17
2022/01/05 12:54:22;;;;;;;2.55;0.95;;;22.50;35.90;;;;;;5149102;27;47031;-18
2022/01/05 12:56:51;;;;;;;2.05;1.35;;;22.40;35.90;;;;;;5148517;27;47058;-17
2022/01/05 12:59:21;;;;;;;1.77;1.00;;;22.40;36.00;;;;;;5148670;27;47175;-17
2022/01/05 13:01:48;;;;;;;1.08;0.98;;;22.40;36.00;;;;;;5148637;27;46889;-17